Time;durP1;ratioP1;P1;durP2;ratioP2;P2;SDS_P1;SDS_P2;PMS_P1;PMS_P2;Temp;Humidity;BMP_temperature;BMP_pressure;BME280_temperature;BME280_humidity;BME280_pressure;Samples;Min_cycle;Max_cycle;Signal;HPM_P1;HPM_P2
2023/05/16 00:00:06;;;;;;;8.02;2.22;;;9.80;99.90;;;;;;5115845;28;20048;-70
2023/05/16 00:02:31;;;;;;;11.32;2.40;;;9.70;99.90;;;;;;5115821;28;20035;-72
2023/05/16 00:04:57;;;;;;;12.27;2.55;;;9.70;99.90;;;;;;5114521;28;20482;-71
2023/05/16 00:07:22;;;;;;;9.63;2.45;;;9.70;99.90;;;;;;5114513;28;20051;-71
2023/05/16 00:09:48;;;;;;;9.52;2.35;;;9.70;99.90;;;;;;5115689;28;20110;-70
2023/05/16 00:12:16;;;;;;;8.02;2.53;;;9.60;99.90;;;;;;5115846;28;20036;-72
2023/05/16 00:14:42;;;;;;;6.35;2.30;;;9.60;99.90;;;;;;5115754;28;20035;-71
2023/05/16 00:17:10;;;;;;;14.50;3.00;;;9.50;99.90;;;;;;5115533;28;20042;-71
2023/05/16 00:19:38;;;;;;;7.78;2.25;;;9.50;99.90;;;;;;5115389;28;20086;-71
2023/05/16 00:22:04;;;;;;;7.28;2.33;;;9.50;99.90;;;;;;5115418;27;20058;-71
2023/05/16 00:24:30;;;;;;;6.63;2.03;;;9.40;99.90;;;;;;5115753;28;20050;-71
2023/05/16 00:26:55;;;;;;;12.25;2.45;;;9.40;99.90;;;;;;5115540;28;20043;-72
2023/05/16 00:29:23;;;;;;;12.32;2.85;;;9.30;99.90;;;;;;5115338;28;20074;-71
2023/05/16 00:31:49;;;;;;;9.48;2.80;;;9.40;99.90;;;;;;5115223;27;20092;-72
2023/05/16 00:34:15;;;;;;;11.13;2.30;;;9.20;99.90;;;;;;5114845;28;20375;-72
2023/05/16 00:36:40;;;;;;;9.38;2.17;;;9.20;99.90;;;;;;5115610;28;20036;-72
2023/05/16 00:39:06;;;;;;;6.80;2.10;;;9.20;99.90;;;;;;5115443;28;20060;-71
2023/05/16 00:41:33;;;;;;;8.35;1.70;;;9.40;99.90;;;;;;5115305;28;20118;-72
2023/05/16 00:43:58;;;;;;;13.45;2.85;;;9.10;99.90;;;;;;5113343;28;20493;-71
2023/05/16 00:46:24;;;;;;;12.55;2.08;;;9.10;99.90;;;;;;5114913;28;20058;-71
2023/05/16 00:48:50;;;;;;;8.38;2.58;;;9.00;99.90;;;;;;5114650;28;20047;-71
2023/05/16 00:51:17;;;;;;;7.28;1.80;;;9.50;99.90;;;;;;5115509;28;20040;-71
2023/05/16 00:53:43;;;;;;;7.55;1.83;;;8.90;99.90;;;;;;5114855;28;20040;-71
2023/05/16 00:56:09;;;;;;;9.45;1.92;;;9.50;99.90;;;;;;5115087;27;20035;-72
2023/05/16 00:58:35;;;;;;;8.57;1.80;;;8.90;99.90;;;;;;5113629;28;20471;-71
2023/05/16 01:01:02;;;;;;;11.45;3.00;;;8.80;99.90;;;;;;5114832;28;20055;-72
2023/05/16 01:03:28;;;;;;;9.35;2.53;;;8.80;99.90;;;;;;5114657;28;20425;-72
2023/05/16 01:05:54;;;;;;;8.90;2.38;;;9.10;99.90;;;;;;5115156;28;20043;-72
2023/05/16 01:08:20;;;;;;;5.70;1.63;;;8.70;99.90;;;;;;5114620;28;20047;-71
2023/05/16 01:11:05;;;;;;;9.20;2.17;;;9.40;99.90;;;;;;5114575;28;20284;-71
2023/05/16 01:13:43;;;;;;;9.38;2.28;;;8.90;99.90;;;;;;5114530;28;20044;-71
2023/05/16 01:16:20;;;;;;;13.07;2.60;;;8.70;99.90;;;;;;5114468;28;20040;-72
2023/05/16 01:19:15;;;;;;;7.40;2.17;;;8.60;99.90;;;;;;5114564;28;20031;-71
2023/05/16 01:22:03;;;;;;;7.93;2.17;;;8.60;99.90;;;;;;5114414;28;20502;-69
2023/05/16 01:24:31;;;;;;;8.43;2.30;;;8.60;99.90;;;;;;5114106;28;20494;-70
2023/05/16 01:26:59;;;;;;;8.18;2.10;;;8.50;99.90;;;;;;5114351;28;20044;-72
2023/05/16 01:29:25;;;;;;;12.90;2.08;;;9.00;99.90;;;;;;5114273;28;20039;-72
2023/05/16 01:31:50;;;;;;;7.13;1.90;;;8.50;99.90;;;;;;5114012;28;20375;-72
2023/05/16 01:34:17;;;;;;;10.35;1.90;;;8.50;99.90;;;;;;5114179;28;20038;-72
2023/05/16 01:37:17;;;;;;;8.30;2.38;;;8.50;99.90;;;;;;5114225;28;20047;-71
2023/05/16 01:39:50;;;;;;;7.63;2.30;;;8.40;99.90;;;;;;5114256;28;20047;-70
2023/05/16 01:42:20;;;;;;;10.30;2.05;;;8.40;99.90;;;;;;5114203;28;20035;-72
2023/05/16 01:44:54;;;;;;;12.52;2.00;;;8.40;99.90;;;;;;5113181;28;20502;-71
2023/05/16 01:47:24;;;;;;;6.68;2.42;;;8.40;99.90;;;;;;5116408;28;20078;-70
2023/05/16 01:50:09;;;;;;;9.32;2.00;;;8.40;99.90;;;;;;5119044;28;20043;-71
2023/05/16 01:52:47;;;;;;;12.63;1.98;;;8.40;99.90;;;;;;5118378;28;20089;-71
2023/05/16 01:55:22;;;;;;;9.30;2.20;;;8.30;99.90;;;;;;5118240;28;20082;-70
2023/05/16 01:57:48;;;;;;;9.02;1.58;;;8.30;99.90;;;;;;5118269;28;20067;-71
2023/05/16 02:00:15;;;;;;;4.60;1.60;;;8.30;99.90;;;;;;5118239;28;20044;-71
2023/05/16 02:02:40;;;;;;;9.37;2.07;;;8.20;99.90;;;;;;5118224;28;20123;-72
2023/05/16 02:05:06;;;;;;;8.60;1.88;;;8.20;99.90;;;;;;5118339;28;20075;-71
2023/05/16 02:07:32;;;;;;;7.78;2.13;;;8.20;99.90;;;;;;5118056;28;20487;-71
2023/05/16 02:09:58;;;;;;;6.80;1.58;;;8.20;99.90;;;;;;5118037;28;20521;-71
2023/05/16 02:12:24;;;;;;;8.15;1.75;;;8.10;99.90;;;;;;5116756;28;20048;-71
2023/05/16 02:14:50;;;;;;;7.40;1.60;;;8.20;99.90;;;;;;5117884;28;20038;-72
2023/05/16 02:17:16;;;;;;;14.48;1.77;;;8.10;99.90;;;;;;5117917;28;20035;-71
2023/05/16 02:19:41;;;;;;;4.30;1.55;;;8.00;99.90;;;;;;5118075;28;20363;-70
2023/05/16 02:22:07;;;;;;;4.00;1.45;;;8.00;99.90;;;;;;5117814;28;20039;-70
2023/05/16 02:24:32;;;;;;;8.13;1.70;;;8.40;99.90;;;;;;5117713;28;20043;-71
2023/05/16 02:26:58;;;;;;;7.97;1.88;;;8.00;99.90;;;;;;5117643;28;20044;-72
2023/05/16 02:29:23;;;;;;;10.90;2.63;;;8.20;99.90;;;;;;5117754;28;20467;-71
2023/05/16 02:31:49;;;;;;;8.45;1.95;;;7.90;99.90;;;;;;5117599;28;20119;-72
2023/05/16 02:34:15;;;;;;;7.32;2.05;;;7.90;99.90;;;;;;5117762;28;20088;-71
2023/05/16 02:36:41;;;;;;;8.10;1.50;;;7.90;99.90;;;;;;5117388;28;20050;-71
2023/05/16 02:39:09;;;;;;;7.25;1.80;;;7.80;99.90;;;;;;5117437;28;20376;-70
2023/05/16 02:41:34;;;;;;;6.53;1.75;;;7.80;99.90;;;;;;5116146;28;20440;-71
2023/05/16 02:44:00;;;;;;;4.68;1.70;;;7.70;99.90;;;;;;5117295;28;20118;-71
2023/05/16 02:46:30;;;;;;;13.43;2.22;;;7.90;99.90;;;;;;5117308;28;20031;-72
2023/05/16 02:48:56;;;;;;;8.45;2.08;;;7.70;99.90;;;;;;5117123;28;20036;-71
2023/05/16 02:51:25;;;;;;;9.32;2.30;;;7.70;99.90;;;;;;5117275;28;20040;-70
2023/05/16 02:53:51;;;;;;;6.05;1.70;;;8.30;99.90;;;;;;5117265;28;20050;-72
2023/05/16 02:56:17;;;;;;;5.40;1.77;;;7.60;99.90;;;;;;5115820;28;20095;-71
2023/05/16 02:58:46;;;;;;;6.45;1.83;;;7.60;99.90;;;;;;5099200;28;20043;-71
2023/05/16 03:01:11;;;;;;;11.18;1.80;;;7.50;99.90;;;;;;5116805;28;20050;-71
2023/05/16 03:03:37;;;;;;;8.18;1.75;;;7.60;99.90;;;;;;5116849;28;20035;-70
2023/05/16 03:06:02;;;;;;;5.38;1.60;;;7.40;99.90;;;;;;5117030;28;20043;-70
2023/05/16 03:08:28;;;;;;;8.50;2.00;;;7.40;99.90;;;;;;5116994;28;20040;-71
2023/05/16 03:10:54;;;;;;;5.93;2.00;;;8.20;99.90;;;;;;5116796;28;20039;-71
2023/05/16 03:13:19;;;;;;;6.88;1.88;;;7.40;99.90;;;;;;5116905;28;20032;-72
2023/05/16 03:15:45;;;;;;;9.70;1.98;;;7.30;99.90;;;;;;5116376;28;20085;-71
2023/05/16 03:18:11;;;;;;;7.47;2.25;;;7.80;99.90;;;;;;5116729;28;20122;-71
2023/05/16 03:20:37;;;;;;;10.68;1.65;;;7.30;99.90;;;;;;5116683;28;20187;-71
2023/05/16 03:23:06;;;;;;;8.27;1.70;;;7.20;99.90;;;;;;5116617;28;20058;-71
2023/05/16 03:25:32;;;;;;;4.32;1.63;;;7.20;99.90;;;;;;5116485;28;20308;-71
2023/05/16 03:27:58;;;;;;;10.52;1.80;;;7.20;99.90;;;;;;5116702;27;20483;-71
2023/05/16 03:30:24;;;;;;;4.38;1.70;;;7.90;99.90;;;;;;5116831;28;20050;-71
2023/05/16 03:32:51;;;;;;;5.13;1.98;;;7.20;99.90;;;;;;5116444;28;20048;-72
2023/05/16 03:35:16;;;;;;;6.53;1.65;;;7.20;99.90;;;;;;5116254;28;20476;-71
2023/05/16 03:37:42;;;;;;;11.20;1.92;;;7.30;99.90;;;;;;5116425;28;20044;-71
2023/05/16 03:40:08;;;;;;;9.93;2.08;;;7.30;99.90;;;;;;5116267;28;20363;-71
2023/05/16 03:42:34;;;;;;;7.80;1.75;;;7.30;99.90;;;;;;5116672;28;20472;-70
2023/05/16 03:45:00;;;;;;;9.88;1.85;;;7.40;99.90;;;;;;5116561;28;20075;-71
2023/05/16 03:47:29;;;;;;;6.55;1.48;;;8.20;99.90;;;;;;5116067;28;20122;-72
2023/05/16 03:49:54;;;;;;;7.03;1.52;;;8.00;99.90;;;;;;5116109;28;20383;-71
2023/05/16 03:52:20;;;;;;;8.77;1.60;;;7.60;99.90;;;;;;5116049;28;20035;-71
2023/05/16 03:54:46;;;;;;;12.10;2.38;;;7.60;99.90;;;;;;5115847;28;20032;-70
2023/05/16 03:57:11;;;;;;;8.30;1.45;;;7.60;99.90;;;;;;5116468;28;20039;-70
2023/05/16 03:59:37;;;;;;;8.27;1.65;;;7.60;99.90;;;;;;5114868;28;20428;-72
2023/05/16 04:02:04;;;;;;;7.22;1.92;;;7.60;99.90;;;;;;5115890;28;20035;-71
2023/05/16 04:04:29;;;;;;;7.77;1.73;;;7.70;99.90;;;;;;5115588;28;20096;-71
2023/05/16 04:06:55;;;;;;;3.15;1.30;;;7.60;99.90;;;;;;5115797;28;20480;-70
2023/05/16 04:09:20;;;;;;;8.30;2.00;;;7.70;99.90;;;;;;5115024;28;20419;-71
2023/05/16 04:11:47;;;;;;;12.98;1.80;;;7.70;99.90;;;;;;5116047;28;20054;-71
2023/05/16 04:14:12;;;;;;;9.57;1.50;;;7.70;99.90;;;;;;5115562;28;20043;-70
2023/05/16 04:16:38;;;;;;;7.57;1.52;;;7.70;99.90;;;;;;5115614;28;20031;-71
2023/05/16 04:19:04;;;;;;;8.80;1.88;;;7.70;99.90;;;;;;5115543;28;20455;-70
2023/05/16 04:21:29;;;;;;;7.15;1.90;;;7.80;99.90;;;;;;5115479;28;20035;-71
2023/05/16 04:23:56;;;;;;;7.82;2.08;;;7.70;99.90;;;;;;5115470;28;20035;-71
2023/05/16 04:26:23;;;;;;;9.48;2.00;;;7.70;99.90;;;;;;5115017;28;20035;-72
2023/05/16 04:28:49;;;;;;;6.57;1.77;;;7.70;99.90;;;;;;5115403;28;20052;-71
2023/05/16 04:31:15;;;;;;;9.30;2.35;;;7.70;99.90;;;;;;5115562;28;20356;-71
2023/05/16 04:33:41;;;;;;;11.75;1.67;;;7.70;99.90;;;;;;5115263;28;20084;-70
2023/05/16 04:36:07;;;;;;;5.32;1.65;;;7.70;99.90;;;;;;5115131;28;20425;-69
2023/05/16 04:38:33;;;;;;;7.30;1.45;;;7.70;99.90;;;;;;5114837;28;20624;-70
2023/05/16 04:40:59;;;;;;;7.63;1.48;;;7.70;99.90;;;;;;5115098;28;20126;-70
2023/05/16 04:43:25;;;;;;;6.23;2.07;;;7.80;99.90;;;;;;5115072;28;20039;-71
2023/05/16 04:45:52;;;;;;;6.88;2.80;;;8.20;99.90;;;;;;5113690;28;20046;-70
2023/05/16 04:48:18;;;;;;;7.13;1.92;;;7.90;99.90;;;;;;5114141;28;20047;-71
2023/05/16 04:50:44;;;;;;;8.50;1.73;;;7.90;99.90;;;;;;5114912;28;20348;-71
2023/05/16 04:53:10;;;;;;;9.30;1.90;;;7.90;99.90;;;;;;5113523;28;20441;-71
2023/05/16 04:55:36;;;;;;;10.82;2.03;;;7.90;99.90;;;;;;5114707;28;20075;-70
2023/05/16 04:58:01;;;;;;;7.25;1.90;;;8.00;99.90;;;;;;5114773;28;20379;-70
2023/05/16 05:00:27;;;;;;;5.18;1.52;;;8.00;99.90;;;;;;5114773;28;20035;-70
2023/05/16 05:02:53;;;;;;;8.32;1.63;;;8.00;99.90;;;;;;5114631;28;20043;-70
2023/05/16 05:05:18;;;;;;;5.47;1.30;;;8.50;99.90;;;;;;5114673;28;20113;-71
2023/05/16 05:07:44;;;;;;;5.75;1.63;;;8.10;99.90;;;;;;5114756;28;20402;-69
2023/05/16 05:10:10;;;;;;;5.90;1.85;;;8.20;99.90;;;;;;5114286;28;20039;-71
2023/05/16 05:12:36;;;;;;;4.10;1.55;;;8.20;99.90;;;;;;5115035;28;20119;-69
2023/05/16 05:15:02;;;;;;;11.60;2.08;;;8.30;99.90;;;;;;5114455;28;20043;-70
2023/05/16 05:17:28;;;;;;;10.88;2.30;;;8.40;99.90;;;;;;5114622;28;20098;-70
2023/05/16 05:19:54;;;;;;;7.35;1.70;;;8.40;99.90;;;;;;5114480;28;20471;-70
2023/05/16 05:22:20;;;;;;;9.68;1.70;;;8.40;99.90;;;;;;5113506;28;20039;-70
2023/05/16 05:24:46;;;;;;;6.65;1.77;;;8.50;99.90;;;;;;5114339;28;20032;-70
2023/05/16 05:27:12;;;;;;;6.43;2.53;;;8.50;99.90;;;;;;5114103;28;20468;-70
2023/05/16 05:29:38;;;;;;;8.55;2.08;;;8.60;99.90;;;;;;5114374;28;20118;-70
2023/05/16 05:32:04;;;;;;;5.82;1.70;;;8.70;99.90;;;;;;5114628;28;20028;-70
2023/05/16 05:34:30;;;;;;;6.13;2.00;;;8.70;99.90;;;;;;5114225;28;20027;-70
2023/05/16 05:36:56;;;;;;;5.88;1.50;;;8.70;99.90;;;;;;5114330;28;20036;-72
2023/05/16 05:39:23;;;;;;;6.32;1.58;;;8.80;99.90;;;;;;5114150;28;20036;-70
2023/05/16 05:41:49;;;;;;;9.40;2.08;;;9.50;99.90;;;;;;5114204;28;20050;-69
2023/05/16 05:44:14;;;;;;;6.97;1.90;;;9.00;99.90;;;;;;5114169;28;20115;-69
2023/05/16 05:46:40;;;;;;;7.40;2.00;;;9.10;99.90;;;;;;5114136;28;20031;-70
2023/05/16 05:49:06;;;;;;;12.77;1.67;;;9.30;99.90;;;;;;5114172;28;20085;-70
2023/05/16 05:51:31;;;;;;;6.53;1.48;;;9.50;99.90;;;;;;5114169;28;20066;-70
2023/05/16 05:53:57;;;;;;;8.63;2.95;;;9.70;99.90;;;;;;5114014;28;20456;-70
2023/05/16 05:56:24;;;;;;;6.30;2.03;;;9.90;99.90;;;;;;5114035;28;20044;-70
2023/05/16 05:58:50;;;;;;;4.50;1.60;;;10.20;99.90;;;;;;5114315;28;20043;-71
2023/05/16 06:01:16;;;;;;;8.05;1.50;;;10.90;99.90;;;;;;5114042;28;20042;-69
2023/05/16 06:03:42;;;;;;;5.63;2.13;;;10.50;99.90;;;;;;5114030;28;20040;-70
2023/05/16 06:06:08;;;;;;;7.15;1.50;;;10.60;99.90;;;;;;5114186;28;20052;-71
2023/05/16 06:08:34;;;;;;;6.97;1.40;;;10.60;99.90;;;;;;5113927;28;20035;-71
2023/05/16 06:11:00;;;;;;;8.20;1.77;;;10.90;99.90;;;;;;5114367;28;20043;-70
2023/05/16 06:13:26;;;;;;;7.05;1.55;;;11.00;99.90;;;;;;5113951;28;20066;-69
2023/05/16 06:15:52;;;;;;;4.72;1.30;;;11.10;99.90;;;;;;5113763;28;20031;-69
2023/05/16 06:18:18;;;;;;;5.88;1.40;;;11.20;99.90;;;;;;5113930;28;20040;-71
2023/05/16 06:20:44;;;;;;;7.72;1.33;;;11.20;99.90;;;;;;5113813;28;20038;-69
2023/05/16 06:23:10;;;;;;;9.93;1.45;;;11.70;99.90;;;;;;5113711;28;20031;-70
2023/05/16 06:25:35;;;;;;;5.03;1.27;;;11.20;99.90;;;;;;5113819;28;20040;-71
2023/05/16 06:28:01;;;;;;;6.55;1.45;;;11.30;99.90;;;;;;5113794;28;20031;-71
2023/05/16 06:30:27;;;;;;;7.43;1.23;;;11.40;99.90;;;;;;5114220;28;20036;-70
2023/05/16 06:32:52;;;;;;;5.10;1.48;;;11.40;99.90;;;;;;5115066;28;20043;-69
2023/05/16 06:35:18;;;;;;;5.68;1.20;;;11.50;99.90;;;;;;5117608;28;20040;-70
2023/05/16 06:37:43;;;;;;;4.15;1.25;;;11.50;99.90;;;;;;5117535;28;20081;-70
2023/05/16 06:40:11;;;;;;;7.43;1.15;;;11.60;99.90;;;;;;5117433;28;20032;-70
2023/05/16 06:42:36;;;;;;;8.63;1.42;;;11.70;99.90;;;;;;5117401;28;20039;-70
2023/05/16 06:45:02;;;;;;;6.85;1.80;;;11.80;99.90;;;;;;5117734;28;20427;-70
2023/05/16 06:47:28;;;;;;;4.97;1.63;;;11.80;99.90;;;;;;5117400;28;20035;-70
2023/05/16 06:49:53;;;;;;;2.08;0.93;;;11.90;99.90;;;;;;5117279;28;20118;-69
2023/05/16 06:52:19;;;;;;;6.15;1.30;;;11.90;99.90;;;;;;5117366;28;20460;-71
2023/05/16 06:54:45;;;;;;;4.40;1.10;;;11.90;99.90;;;;;;5116781;27;20079;-69
2023/05/16 06:57:10;;;;;;;5.68;1.42;;;12.20;99.90;;;;;;5117163;28;20474;-70
2023/05/16 06:59:36;;;;;;;6.38;1.23;;;12.40;99.90;;;;;;5117686;28;20039;-70
2023/05/16 07:02:02;;;;;;;6.40;1.30;;;12.50;99.90;;;;;;5116878;28;20041;-70
2023/05/16 07:04:27;;;;;;;7.18;1.20;;;12.70;99.90;;;;;;5098988;28;20082;-70
2023/05/16 07:06:53;;;;;;;5.43;1.00;;;13.00;99.90;;;;;;5116723;28;20035;-70
2023/05/16 07:09:20;;;;;;;7.18;1.10;;;12.90;99.90;;;;;;5116692;28;20047;-71
2023/05/16 07:11:45;;;;;;;3.97;1.15;;;12.90;99.90;;;;;;5116835;28;20044;-70
2023/05/16 07:14:11;;;;;;;7.30;1.60;;;12.90;99.90;;;;;;5116805;28;20092;-70
2023/05/16 07:16:37;;;;;;;7.07;1.42;;;13.30;99.90;;;;;;5116892;28;20123;-70
2023/05/16 07:19:02;;;;;;;6.22;0.98;;;12.90;99.90;;;;;;5116618;28;20047;-72
2023/05/16 07:21:29;;;;;;;4.45;1.00;;;12.90;99.90;;;;;;5116526;28;20122;-70
2023/05/16 07:23:54;;;;;;;3.92;1.30;;;12.90;99.90;;;;;;5116564;28;20144;-71
2023/05/16 07:26:22;;;;;;;5.22;1.23;;;13.00;99.90;;;;;;5116587;28;20039;-73
2023/05/16 07:28:49;;;;;;;5.53;1.27;;;13.30;99.90;;;;;;5117220;28;20076;-70
2023/05/16 07:31:18;;;;;;;6.10;1.70;;;13.30;99.90;;;;;;5116440;28;20114;-72
2023/05/16 07:33:45;;;;;;;5.43;1.08;;;13.40;99.90;;;;;;5116430;28;20075;-70
2023/05/16 07:36:12;;;;;;;4.68;1.30;;;13.60;99.90;;;;;;5116367;28;20094;-70
2023/05/16 07:38:38;;;;;;;4.53;1.00;;;13.70;99.90;;;;;;5116298;28;20051;-71
2023/05/16 07:41:04;;;;;;;2.43;1.00;;;13.70;99.90;;;;;;5116279;28;20055;-70
2023/05/16 07:43:30;;;;;;;3.33;0.85;;;13.50;99.90;;;;;;5116313;28;20036;-70
2023/05/16 07:45:55;;;;;;;3.13;0.93;;;13.50;99.90;;;;;;5115494;28;20046;-70
2023/05/16 07:48:21;;;;;;;2.30;1.10;;;13.10;99.90;;;;;;5116196;28;20039;-71
2023/05/16 07:50:46;;;;;;;4.45;0.82;;;13.00;99.90;;;;;;5116104;28;20044;-70
2023/05/16 07:53:12;;;;;;;2.13;1.02;;;13.00;99.90;;;;;;5114816;28;20144;-70
2023/05/16 07:55:38;;;;;;;3.35;1.00;;;13.10;99.90;;;;;;5116421;28;20410;-71
2023/05/16 07:58:03;;;;;;;1.67;0.98;;;13.00;99.90;;;;;;5116306;28;20043;-71
2023/05/16 08:00:29;;;;;;;2.65;0.98;;;13.20;99.90;;;;;;5116213;28;20043;-70
2023/05/16 08:02:55;;;;;;;5.70;1.25;;;13.30;99.90;;;;;;5115912;28;20356;-69
2023/05/16 08:05:22;;;;;;;2.78;1.05;;;13.40;99.90;;;;;;5115823;28;20052;-70
2023/05/16 08:07:47;;;;;;;1.57;0.90;;;13.50;99.90;;;;;;5115746;28;20040;-70
2023/05/16 08:10:13;;;;;;;1.23;0.80;;;13.70;99.90;;;;;;5115732;28;20042;-70
2023/05/16 08:12:39;;;;;;;5.03;1.08;;;13.70;99.90;;;;;;5115671;28;20039;-70
2023/05/16 08:15:05;;;;;;;2.40;0.60;;;13.50;99.90;;;;;;5115619;28;20040;-70
2023/05/16 08:17:30;;;;;;;3.10;0.93;;;13.30;99.90;;;;;;5115825;28;20421;-69
2023/05/16 08:19:58;;;;;;;2.63;0.73;;;13.20;99.90;;;;;;5115667;28;20039;-70
2023/05/16 08:22:24;;;;;;;2.30;0.80;;;13.30;99.90;;;;;;5115372;28;20517;-70
2023/05/16 08:24:50;;;;;;;2.78;0.90;;;13.50;99.90;;;;;;5115416;28;20047;-69
2023/05/16 08:27:15;;;;;;;1.87;0.87;;;13.80;99.90;;;;;;5114228;28;20039;-70
2023/05/16 08:29:41;;;;;;;1.45;0.90;;;13.40;99.90;;;;;;5115381;28;20039;-70
2023/05/16 08:32:08;;;;;;;6.10;1.00;;;13.60;99.90;;;;;;5115697;28;20177;-71
2023/05/16 08:34:34;;;;;;;4.10;1.10;;;14.00;99.90;;;;;;5115198;28;20032;-70
2023/05/16 08:37:00;;;;;;;4.77;0.97;;;14.00;99.90;;;;;;5115181;28;20042;-70
2023/05/16 08:39:26;;;;;;;2.85;1.13;;;14.20;99.90;;;;;;5115157;28;20114;-69
2023/05/16 08:41:51;;;;;;;7.82;1.05;;;14.20;99.90;;;;;;5097136;28;20035;-70
2023/05/16 08:44:20;;;;;;;3.63;0.98;;;14.30;99.90;;;;;;5115346;28;20113;-70
2023/05/16 08:46:53;;;;;;;5.40;0.93;;;14.40;99.90;;;;;;5115040;27;20043;-70
2023/05/16 08:49:19;;;;;;;4.50;0.95;;;14.50;99.90;;;;;;5114991;28;20035;-69
2023/05/16 08:51:46;;;;;;;2.87;0.90;;;14.60;99.90;;;;;;5114870;28;20356;-70
2023/05/16 08:54:14;;;;;;;3.83;1.05;;;14.80;99.90;;;;;;5114113;28;20043;-70
2023/05/16 08:56:44;;;;;;;5.10;1.00;;;14.30;99.90;;;;;;5114646;28;20035;-70
2023/05/16 08:59:11;;;;;;;2.85;1.00;;;14.10;99.90;;;;;;5114756;28;20088;-69
2023/05/16 09:01:37;;;;;;;3.78;0.90;;;14.00;99.90;;;;;;5114807;28;20078;-70
2023/05/16 09:04:04;;;;;;;5.03;1.08;;;13.70;99.90;;;;;;5114523;28;20071;-70
2023/05/16 09:06:30;;;;;;;4.68;0.95;;;13.70;99.90;;;;;;5114734;28;20039;-70
2023/05/16 09:08:56;;;;;;;4.87;1.20;;;13.80;99.90;;;;;;5114357;28;20122;-70
2023/05/16 09:11:21;;;;;;;5.93;1.08;;;14.10;99.90;;;;;;5114420;28;20039;-70
2023/05/16 09:13:50;;;;;;;2.00;1.23;;;14.30;99.90;;;;;;5114560;28;20035;-70
2023/05/16 09:16:18;;;;;;;4.85;1.15;;;14.50;99.90;;;;;;5114457;28;20040;-69
2023/05/16 09:18:55;;;;;;;7.30;1.33;;;14.60;99.90;;;;;;5114482;28;20425;-70
2023/05/16 09:21:27;;;;;;;3.15;1.10;;;14.60;99.90;;;;;;5114459;28;20027;-70
2023/05/16 09:23:52;;;;;;;6.13;1.05;;;14.70;99.90;;;;;;5114864;28;20040;-71
2023/05/16 09:26:18;;;;;;;2.20;0.93;;;14.90;99.90;;;;;;5114770;28;20054;-71
2023/05/16 09:28:44;;;;;;;3.28;1.10;;;15.00;99.90;;;;;;5114363;28;20463;-71
2023/05/16 09:31:20;;;;;;;4.43;1.57;;;14.90;99.90;;;;;;5114414;28;20035;-70
2023/05/16 09:33:47;;;;;;;5.37;1.27;;;15.00;99.90;;;;;;5114295;28;20044;-70
2023/05/16 09:36:14;;;;;;;3.60;1.02;;;15.00;99.90;;;;;;5114080;28;20039;-70
2023/05/16 09:38:40;;;;;;;6.82;1.15;;;15.10;99.90;;;;;;5114132;28;20078;-69
2023/05/16 09:41:07;;;;;;;2.35;0.88;;;14.90;99.90;;;;;;5114190;28;20031;-70
2023/05/16 09:43:36;;;;;;;4.18;1.08;;;14.90;99.90;;;;;;5114013;28;20048;-69
2023/05/16 09:46:02;;;;;;;8.25;1.13;;;15.00;99.90;;;;;;5113957;28;20047;-70
2023/05/16 09:48:28;;;;;;;2.97;0.80;;;15.20;99.90;;;;;;5113968;28;20031;-70
2023/05/16 09:50:53;;;;;;;6.45;1.13;;;15.20;99.90;;;;;;5114013;28;20084;-71
2023/05/16 09:53:26;;;;;;;2.07;0.90;;;15.30;99.90;;;;;;5113912;28;20044;-71
2023/05/16 09:56:02;;;;;;;3.38;0.90;;;15.90;99.90;;;;;;5114003;28;20043;-70
2023/05/16 09:58:30;;;;;;;3.83;0.90;;;15.50;99.90;;;;;;5113880;28;20398;-71
2023/05/16 10:00:57;;;;;;;3.17;0.88;;;15.30;99.90;;;;;;5113865;28;20075;-71
2023/05/16 10:03:24;;;;;;;5.43;0.98;;;15.10;99.90;;;;;;5113838;28;20043;-71
2023/05/16 10:05:51;;;;;;;3.90;0.98;;;14.90;99.90;;;;;;5113813;28;20063;-69
2023/05/16 10:08:22;;;;;;;3.97;0.90;;;14.50;99.90;;;;;;5115904;28;20247;-70
2023/05/16 10:10:51;;;;;;;2.95;0.90;;;14.20;99.90;;;;;;5118111;28;20135;-70
2023/05/16 10:13:22;;;;;;;2.25;0.80;;;14.10;99.90;;;;;;5117691;28;20035;-70
2023/05/16 10:15:55;;;;;;;3.05;0.90;;;14.10;99.90;;;;;;5118244;28;20039;-71
2023/05/16 10:18:21;;;;;;;2.60;0.88;;;14.30;99.90;;;;;;5117750;27;20040;-71
2023/05/16 10:20:51;;;;;;;;;;;14.30;99.90;;;;;;5118227;28;20200;-70
2023/05/16 10:23:18;;;;;;;2.35;0.93;;;14.50;99.90;;;;;;5117643;28;19921;-71
2023/05/16 10:25:45;;;;;;;2.55;0.98;;;14.80;99.90;;;;;;5117628;27;20043;-71
2023/05/16 10:28:13;;;;;;;2.75;1.00;;;15.30;99.90;;;;;;5116439;28;20130;-70
2023/05/16 10:30:43;;;;;;;3.47;0.90;;;15.00;99.90;;;;;;5117557;28;20040;-71
2023/05/16 10:33:18;;;;;;;4.90;1.13;;;15.00;99.90;;;;;;5117544;28;20044;-70
2023/05/16 10:35:45;;;;;;;5.60;0.82;;;14.80;99.90;;;;;;5117679;27;20148;-71
2023/05/16 10:38:13;;;;;;;2.97;0.80;;;14.40;99.90;;;;;;5117335;28;20083;-70
2023/05/16 10:40:40;;;;;;;4.97;1.05;;;14.30;99.90;;;;;;5117387;27;20118;-69
2023/05/16 10:43:07;;;;;;;4.63;0.82;;;14.20;99.90;;;;;;5117657;28;20039;-71
2023/05/16 10:45:32;;;;;;;;;;;14.00;99.90;;;;;;5117605;28;20044;-71
2023/05/16 10:48:04;;;;;;;5.80;0.90;;;13.80;99.90;;;;;;5117207;28;20293;-70
2023/05/16 10:50:43;;;;;;;3.70;0.95;;;13.70;99.90;;;;;;5117283;28;20435;-70
2023/05/16 10:53:18;;;;;;;8.48;2.05;;;13.60;99.90;;;;;;5117041;28;20126;-72
2023/05/16 10:56:05;;;;;;;3.00;0.80;;;13.70;99.90;;;;;;5115696;28;20032;-69
2023/05/16 10:58:33;;;;;;;5.22;1.00;;;14.10;99.90;;;;;;5116744;28;20468;-71
2023/05/16 11:01:25;;;;;;;4.07;1.00;;;14.40;99.90;;;;;;5116961;28;20345;-71
2023/05/16 11:04:03;;;;;;;3.03;0.80;;;14.80;99.90;;;;;;5116764;28;20055;-71
2023/05/16 11:06:32;;;;;;;;;;;15.10;99.90;;;;;;5117303;28;20132;-71
2023/05/16 11:09:08;;;;;;;5.18;1.00;;;15.50;99.90;;;;;;5116947;28;19933;-70
2023/05/16 11:11:38;;;;;;;6.47;1.10;;;15.50;99.90;;;;;;5117138;28;20435;-72
2023/05/16 11:14:04;;;;;;;3.83;0.95;;;15.30;99.90;;;;;;5116618;28;20490;-70
2023/05/16 11:16:30;;;;;;;5.53;1.20;;;15.00;99.90;;;;;;5117008;28;20027;-70
2023/05/16 11:19:07;;;;;;;5.30;0.70;;;14.80;99.90;;;;;;5115429;28;20042;-71
2023/05/16 11:22:03;;;;;;;3.10;1.13;;;14.60;99.90;;;;;;5116215;28;20083;-71
2023/05/16 11:24:30;;;;;;;2.95;1.15;;;14.60;99.90;;;;;;5116456;28;20488;-71
2023/05/16 11:27:00;;;;;;;4.20;1.00;;;14.40;99.90;;;;;;5117052;28;20031;-72
2023/05/16 11:29:32;;;;;;;2.97;0.90;;;14.40;99.90;;;;;;5116363;28;20054;-70
2023/05/16 11:31:59;;;;;;;2.03;0.80;;;14.70;99.90;;;;;;5116342;28;20372;-71
2023/05/16 11:34:25;;;;;;;1.13;0.60;;;15.00;99.90;;;;;;5116137;28;20455;-71
2023/05/16 11:36:51;;;;;;;2.20;0.90;;;15.20;99.90;;;;;;5116257;28;20050;-72
2023/05/16 11:39:18;;;;;;;1.60;0.77;;;15.50;99.90;;;;;;5116244;28;20054;-71
2023/05/16 11:41:43;;;;;;;2.97;0.85;;;15.80;99.90;;;;;;5116444;28;20036;-70
2023/05/16 11:44:11;;;;;;;3.00;1.63;;;16.00;99.90;;;;;;5116148;28;20039;-72
2023/05/16 11:46:41;;;;;;;4.80;0.82;;;16.10;99.90;;;;;;5116017;28;20035;-71
2023/05/16 11:49:08;;;;;;;2.85;1.00;;;16.10;99.90;;;;;;5115987;28;20075;-71
2023/05/16 11:51:42;;;;;;;2.38;0.70;;;16.30;98.60;;;;;;5115838;28;20040;-70
2023/05/16 11:54:11;;;;;;;3.58;1.17;;;16.40;99.90;;;;;;5115993;28;20097;-70
2023/05/16 11:56:39;;;;;;;1.95;0.80;;;16.40;99.30;;;;;;5114626;28;20081;-71
2023/05/16 11:59:05;;;;;;;3.30;0.80;;;16.50;98.00;;;;;;5115805;28;20122;-70
2023/05/16 12:01:38;;;;;;;4.13;1.00;;;16.70;99.20;;;;;;5115900;28;20040;-70
2023/05/16 12:04:12;;;;;;;3.13;0.90;;;16.60;98.60;;;;;;5115429;28;20035;-71
2023/05/16 12:06:38;;;;;;;2.25;0.93;;;16.40;99.00;;;;;;5114667;28;20036;-71
2023/05/16 12:09:09;;;;;;;2.28;0.90;;;16.30;99.70;;;;;;5115632;28;20031;-70
2023/05/16 12:11:39;;;;;;;3.85;1.42;;;16.30;99.40;;;;;;5115586;28;20086;-70
2023/05/16 12:14:07;;;;;;;1.95;1.10;;;16.20;98.70;;;;;;5115484;28;20036;-72
2023/05/16 12:16:35;;;;;;;2.17;1.10;;;16.20;96.60;;;;;;5115296;28;20122;-70
2023/05/16 12:19:03;;;;;;;3.10;1.20;;;16.20;96.60;;;;;;5115390;28;20039;-70
2023/05/16 12:21:30;;;;;;;2.63;1.20;;;16.20;97.90;;;;;;5115453;28;20096;-71
2023/05/16 12:23:57;;;;;;;6.70;1.45;;;16.10;97.10;;;;;;5115332;28;20190;-71
2023/05/16 12:26:25;;;;;;;;;;;15.60;96.70;;;;;;5115883;28;20083;-70
2023/05/16 12:28:59;;;;;;;5.10;1.38;;;15.40;98.00;;;;;;5114160;28;19922;-71
2023/05/16 12:31:25;;;;;;;5.05;1.02;;;15.20;98.00;;;;;;5115196;28;20036;-71
2023/05/16 12:33:55;;;;;;;3.42;1.00;;;15.00;98.50;;;;;;5115146;28;20036;-71
2023/05/16 12:36:22;;;;;;;4.80;1.17;;;15.00;98.80;;;;;;5114851;28;20076;-70
2023/05/16 12:38:49;;;;;;;3.08;1.10;;;15.00;99.50;;;;;;5114918;28;20039;-71
2023/05/16 12:41:21;;;;;;;4.65;1.40;;;15.00;99.60;;;;;;5115023;28;20455;-71
2023/05/16 12:43:50;;;;;;;6.72;1.35;;;14.80;99.70;;;;;;5113699;28;20035;-70
2023/05/16 12:46:18;;;;;;;5.82;1.05;;;14.90;99.90;;;;;;5114809;28;20160;-71
2023/05/16 12:48:46;;;;;;;3.50;1.00;;;15.10;99.90;;;;;;5114871;28;20123;-70
2023/05/16 12:51:16;;;;;;;3.00;1.30;;;15.20;99.90;;;;;;5114801;28;20093;-72